createdAt,value
2023-11-01T00:02:10.889Z,6.10
2023-11-01T00:05:26.419Z,8.68
2023-11-01T00:07:54.789Z,8.10
2023-11-01T00:10:28.224Z,5.90
2023-11-01T00:13:24.649Z,9.55
2023-11-01T00:16:34.047Z,5.95
2023-11-01T00:23:29.820Z,4.28
2023-11-01T00:33:12.564Z,7.07
2023-11-01T00:35:41.840Z,11.00
2023-11-01T00:38:32.513Z,6.78
2023-11-01T00:43:52.265Z,5.25
2023-11-01T00:46:27.499Z,5.00
2023-11-01T00:49:29.244Z,6.88
2023-11-01T00:52:00.390Z,8.50
2023-11-01T00:54:29.674Z,6.47
2023-11-01T00:57:38.463Z,7.22
2023-11-01T01:00:00.233Z,8.63
2023-11-01T01:02:31.441Z,5.18
2023-11-01T01:05:00.040Z,6.80
2023-11-01T01:07:31.287Z,5.63
2023-11-01T01:12:56.240Z,5.97
2023-11-01T01:15:25.114Z,9.90
2023-11-01T01:18:00.427Z,8.13
2023-11-01T01:20:30.959Z,7.00
2023-11-01T01:23:54.473Z,8.18
2023-11-01T01:26:28.790Z,7.35
2023-11-01T01:32:03.700Z,8.98
2023-11-01T01:34:32.161Z,9.18
2023-11-01T01:37:03.896Z,11.75
2023-11-01T01:40:05.301Z,9.98
2023-11-01T01:45:27.000Z,5.05
2023-11-01T01:47:55.605Z,6.72
2023-11-01T01:50:49.279Z,6.72
2023-11-01T01:53:18.318Z,10.23
2023-11-01T01:55:59.783Z,7.90
2023-11-01T01:58:56.177Z,7.53
2023-11-01T02:01:58.600Z,7.68
2023-11-01T02:07:27.865Z,10.55
2023-11-01T02:18:31.464Z,11.60
2023-11-01T02:21:00.358Z,11.70
2023-11-01T02:23:58.437Z,13.35
2023-11-01T02:26:26.349Z,7.68
2023-11-01T02:29:00.027Z,7.93
2023-11-01T02:36:59.900Z,7.82
2023-11-01T02:53:57.353Z,8.07
2023-11-01T02:56:27.132Z,4.60
2023-11-01T02:58:59.190Z,7.10
2023-11-01T03:04:24.854Z,7.32
2023-11-01T03:06:56.078Z,7.97
2023-11-01T03:09:29.280Z,5.03
2023-11-01T03:11:57.869Z,7.35
2023-11-01T03:14:26.246Z,6.80
2023-11-01T03:16:57.712Z,5.82
2023-11-01T03:20:08.148Z,4.47
2023-11-01T03:23:00.849Z,4.35
2023-11-01T03:28:10.940Z,5.05
2023-11-01T03:31:01.039Z,4.25
2023-11-01T03:36:27.853Z,6.05
2023-11-01T03:38:56.334Z,5.63
2023-11-01T03:41:27.749Z,5.22
2023-11-01T03:43:56.328Z,5.50
2023-11-01T03:46:28.026Z,6.10
2023-11-01T03:48:56.432Z,5.70
2023-11-01T03:51:58.720Z,6.63
2023-11-01T03:54:27.756Z,5.60
2023-11-01T03:56:56.411Z,6.68
2023-11-01T03:59:26.719Z,5.60
2023-11-01T04:04:58.943Z,5.47
2023-11-01T04:07:27.362Z,4.75
2023-11-01T04:09:55.962Z,4.85
2023-11-01T04:12:24.427Z,6.57
2023-11-01T04:14:58.562Z,7.25
2023-11-01T04:17:27.552Z,6.82
2023-11-01T04:19:55.940Z,6.35
2023-11-01T04:25:55.202Z,4.28
2023-11-01T04:30:57.218Z,5.60
2023-11-01T04:35:56.320Z,5.43
2023-11-01T04:38:25.564Z,5.35
2023-11-01T04:40:56.951Z,4.25
2023-11-01T04:43:25.345Z,5.80
2023-11-01T04:45:57.066Z,5.03
2023-11-01T04:48:26.165Z,4.93
2023-11-01T04:50:57.336Z,8.35
2023-11-01T04:53:26.050Z,3.83
2023-11-01T04:55:57.852Z,4.63
2023-11-01T04:58:26.328Z,4.80
2023-11-01T05:00:57.799Z,5.18
2023-11-01T05:03:26.770Z,6.93
2023-11-01T05:05:55.159Z,6.75
2023-11-01T05:08:26.633Z,6.93
2023-11-01T05:10:55.633Z,6.38
2023-11-01T05:13:27.091Z,6.25
2023-11-01T05:15:56.217Z,5.70
2023-11-01T05:18:54.509Z,5.38
2023-11-01T05:21:26.561Z,7.95
2023-11-01T05:23:54.993Z,5.00
2023-11-01T05:26:26.604Z,4.10
2023-11-01T05:29:21.524Z,8.27
2023-11-01T05:32:25.174Z,5.90
2023-11-01T05:38:25.364Z,5.38
2023-11-01T05:40:54.849Z,6.22
2023-11-01T05:43:26.405Z,5.65
2023-11-01T05:52:28.739Z,7.60
2023-11-01T05:55:07.140Z,8.02
2023-11-01T05:58:33.215Z,6.15
2023-11-01T06:01:32.516Z,6.80
2023-11-01T06:04:24.825Z,5.82
2023-11-01T06:06:59.115Z,4.57
2023-11-01T06:09:27.473Z,5.03
2023-11-01T06:14:56.108Z,6.30
2023-11-01T06:17:24.503Z,8.05
2023-11-01T06:19:54.655Z,5.85
2023-11-01T06:22:25.697Z,4.93
2023-11-01T06:24:54.125Z,5.40
2023-11-01T06:27:25.626Z,6.70
2023-11-01T06:29:54.730Z,5.93
2023-11-01T06:32:25.951Z,5.43
2023-11-01T06:34:54.464Z,7.18
2023-11-01T06:37:54.986Z,7.22
2023-11-01T06:40:55.153Z,5.75
2023-11-01T06:43:51.691Z,4.82
2023-11-01T06:46:25.083Z,5.70
2023-11-01T06:48:54.104Z,6.72
2023-11-01T06:51:32.405Z,6.70
2023-11-01T06:54:01.436Z,6.32
2023-11-01T06:56:59.112Z,7.43
2023-11-01T06:59:56.729Z,6.25
2023-11-01T07:02:57.046Z,6.07
2023-11-01T07:06:01.743Z,7.05
2023-11-01T07:08:30.296Z,5.32
2023-11-01T07:10:58.629Z,6.30
2023-11-01T07:13:55.561Z,6.45
2023-11-01T07:22:00.482Z,4.68
2023-11-01T07:24:53.577Z,6.47
2023-11-01T07:27:22.444Z,4.18
2023-11-01T07:29:53.949Z,6.93
2023-11-01T07:32:24.036Z,5.32
2023-11-01T07:34:52.612Z,7.07
2023-11-01T07:37:30.638Z,6.85
2023-11-01T07:39:59.132Z,8.45
2023-11-01T07:42:48.498Z,6.25
2023-11-01T07:45:17.016Z,5.97
2023-11-01T07:47:51.798Z,9.40
2023-11-01T07:50:23.388Z,4.63
2023-11-01T07:52:51.727Z,7.03
2023-11-01T07:55:23.223Z,7.43
2023-11-01T07:57:51.589Z,6.00
2023-11-01T08:00:23.608Z,8.35
2023-11-01T08:02:52.041Z,6.70
2023-11-01T08:05:23.773Z,7.97
2023-11-01T08:07:52.737Z,6.63
2023-11-01T08:10:23.252Z,4.85
2023-11-01T08:12:51.671Z,6.87
2023-11-01T08:15:20.242Z,5.50
2023-11-01T08:17:52.568Z,5.43
2023-11-01T08:20:21.061Z,5.50
2023-11-01T08:22:51.708Z,4.88
2023-11-01T08:25:24.199Z,7.90
2023-11-01T08:27:53.341Z,7.78
2023-11-01T08:30:21.828Z,7.63
2023-11-01T08:32:53.272Z,8.45
2023-11-01T08:35:21.751Z,7.60
2023-11-01T08:37:52.967Z,5.13
2023-11-01T08:40:22.035Z,6.75
2023-11-01T08:42:51.472Z,4.70
2023-11-01T08:45:22.626Z,5.80
2023-11-01T08:47:51.097Z,8.80
2023-11-01T08:50:21.907Z,7.07
2023-11-01T08:53:21.047Z,5.18
2023-11-01T08:56:21.022Z,6.53
2023-11-01T08:58:54.056Z,6.13
2023-11-01T09:01:22.503Z,5.35
2023-11-01T09:04:18.586Z,6.03
2023-11-01T09:07:11.319Z,7.95
2023-11-01T09:09:40.167Z,8.05
2023-11-01T09:12:17.200Z,6.50
2023-11-01T09:15:19.185Z,5.82
2023-11-01T09:18:11.925Z,7.20
2023-11-01T09:20:40.411Z,6.30
2023-11-01T09:23:18.954Z,6.65
2023-11-01T09:25:57.725Z,6.72
2023-11-01T09:28:26.097Z,5.68
2023-11-01T09:31:16.568Z,7.45
2023-11-01T09:33:53.743Z,8.38
2023-11-01T09:36:22.222Z,8.45
2023-11-01T09:38:51.221Z,4.53
2023-11-01T09:41:24.559Z,5.25
2023-11-01T09:44:18.387Z,6.95
2023-11-01T09:47:03.974Z,6.30
2023-11-01T09:49:41.795Z,5.70
2023-11-01T09:52:19.307Z,7.40
2023-11-01T09:54:50.849Z,4.78
2023-11-01T09:57:23.068Z,5.43
2023-11-01T09:59:52.181Z,7.38
2023-11-01T10:02:21.102Z,5.45
2023-11-01T10:04:50.106Z,5.88
2023-11-01T10:07:20.081Z,8.40
2023-11-01T10:09:49.415Z,6.43
2023-11-01T10:15:45.140Z,8.55
2023-11-01T10:20:48.473Z,6.88
2023-11-01T10:23:24.385Z,7.07
2023-11-01T10:28:48.824Z,5.57
2023-11-01T10:31:29.266Z,6.72
2023-11-01T10:36:50.463Z,8.40
2023-11-01T10:39:45.350Z,7.93
2023-11-01T10:42:29.731Z,8.32
2023-11-01T10:44:58.703Z,6.57
2023-11-01T10:47:45.404Z,7.90
2023-11-01T10:50:46.007Z,6.22
2023-11-01T10:53:39.774Z,7.95
2023-11-01T10:56:09.190Z,7.72
2023-11-01T10:58:48.734Z,7.68
2023-11-01T11:01:47.350Z,9.57
2023-11-01T11:04:34.980Z,8.95
2023-11-01T11:07:49.346Z,6.00
2023-11-01T11:10:46.139Z,7.38
2023-11-01T11:13:44.993Z,8.15
2023-11-01T11:16:48.022Z,6.03
2023-11-01T11:19:20.902Z,6.15
2023-11-01T11:22:51.917Z,6.05
2023-11-01T11:25:16.666Z,5.60
2023-11-01T11:27:51.549Z,7.68
2023-11-01T11:31:04.699Z,7.35
2023-11-01T11:33:47.010Z,6.30
2023-11-01T11:36:24.016Z,8.00
2023-11-01T11:38:57.200Z,7.93
2023-11-01T11:41:53.178Z,6.65
2023-11-01T11:44:51.518Z,9.70
2023-11-01T11:47:32.228Z,7.95
2023-11-01T11:50:16.722Z,7.17
2023-11-01T11:52:48.206Z,5.95
2023-11-01T11:58:11.818Z,9.25
2023-11-01T12:01:13.546Z,7.07
2023-11-01T12:09:18.598Z,7.93
2023-11-01T12:11:54.621Z,8.27
2023-11-01T12:14:23.949Z,8.30
2023-11-01T12:16:54.796Z,6.25
2023-11-01T12:19:24.988Z,10.80
2023-11-01T12:21:53.723Z,6.15
2023-11-01T12:24:32.797Z,8.55
2023-11-01T12:27:08.511Z,10.70
2023-11-01T12:29:48.837Z,6.72
2023-11-01T12:32:21.543Z,5.78
2023-11-01T12:34:56.147Z,7.45
2023-11-01T12:40:22.993Z,8.18
2023-11-01T13:05:11.633Z,6.50
2023-11-01T13:26:18.005Z,9.18
2023-11-01T13:37:18.172Z,5.80
2023-11-01T13:56:02.003Z,7.57
2023-11-01T14:01:40.080Z,9.73
2023-11-01T14:06:56.480Z,7.93
2023-11-01T14:14:12.301Z,9.27
2023-11-01T14:16:47.899Z,12.80
2023-11-01T14:19:40.229Z,7.43
2023-11-01T14:22:11.742Z,11.73
2023-11-01T14:27:13.156Z,11.02
2023-11-01T14:29:42.034Z,10.80
2023-11-01T14:32:10.485Z,9.63
2023-11-01T14:34:41.385Z,11.32
2023-11-01T14:37:10.145Z,11.98
2023-11-01T14:39:42.677Z,14.27
2023-11-01T14:42:11.169Z,13.60
2023-11-01T14:44:40.828Z,10.80
2023-11-01T14:47:09.995Z,11.05
2023-11-01T14:49:41.469Z,13.95
2023-11-01T14:54:40.965Z,11.70
2023-11-01T15:00:10.632Z,18.65
2023-11-01T15:02:56.443Z,12.20
2023-11-01T15:05:39.080Z,13.27
2023-11-01T15:08:16.501Z,13.48
2023-11-01T15:11:07.582Z,11.40
2023-11-01T15:14:08.420Z,16.65
2023-11-01T15:16:38.186Z,11.68
2023-11-01T15:19:09.486Z,15.38
2023-11-01T15:22:08.687Z,13.10
2023-11-01T15:24:39.802Z,15.70
2023-11-01T15:27:08.485Z,15.90
2023-11-01T15:29:37.048Z,19.42
2023-11-01T15:32:06.042Z,14.95
2023-11-01T15:34:37.600Z,15.15
2023-11-01T15:39:36.561Z,14.15
2023-11-01T15:42:05.314Z,18.67
2023-11-01T15:44:39.674Z,16.17
2023-11-01T15:47:08.252Z,19.50
2023-11-01T15:49:36.932Z,15.07
2023-11-01T15:52:06.716Z,14.43
2023-11-01T15:54:39.422Z,13.18
2023-11-01T15:57:11.008Z,19.02
2023-11-01T15:59:39.492Z,14.32
2023-11-01T16:02:08.378Z,17.25
2023-11-01T16:04:36.930Z,14.50
2023-11-01T16:07:06.505Z,14.65
2023-11-01T16:09:45.150Z,13.70
2023-11-01T16:12:13.542Z,18.33
2023-11-01T16:14:42.024Z,16.05
2023-11-01T16:17:12.721Z,15.27
2023-11-01T16:19:44.726Z,22.65
2023-11-01T16:22:13.094Z,16.20
2023-11-01T16:24:46.919Z,18.10
2023-11-01T16:27:15.647Z,14.57
2023-11-01T16:29:46.674Z,12.95
2023-11-01T16:32:17.542Z,12.10
2023-11-01T16:35:02.297Z,15.65
2023-11-01T16:37:37.027Z,14.10
2023-11-01T16:40:07.536Z,18.38
2023-11-01T16:42:35.876Z,14.90
2023-11-01T16:45:05.109Z,17.05
2023-11-01T16:47:36.484Z,16.17
2023-11-01T16:50:05.490Z,18.45
2023-11-01T16:52:37.512Z,14.88
2023-11-01T16:55:06.214Z,14.18
2023-11-01T16:57:35.264Z,17.77
2023-11-01T17:00:07.167Z,13.10
2023-11-01T17:02:45.371Z,14.15
2023-11-01T17:05:18.919Z,15.13
2023-11-01T17:07:48.040Z,12.77
2023-11-01T17:10:17.551Z,13.40
2023-11-01T17:12:49.897Z,13.00
2023-11-01T17:15:27.303Z,13.35
2023-11-01T17:17:59.073Z,11.98
2023-11-01T17:20:30.620Z,12.80
2023-11-01T17:23:09.374Z,14.70
2023-11-01T17:25:53.499Z,14.63
2023-11-01T17:28:38.266Z,20.30
2023-11-01T17:31:19.179Z,12.20
2023-11-01T17:33:56.700Z,15.60
2023-11-01T17:36:37.522Z,14.55
2023-11-01T17:39:18.275Z,11.63
2023-11-01T17:42:05.022Z,10.75
2023-11-01T17:44:36.462Z,12.70
2023-11-01T17:47:11.145Z,18.17
2023-11-01T17:49:42.511Z,16.17
2023-11-01T17:52:38.108Z,13.75
2023-11-01T17:55:08.644Z,12.65
2023-11-01T17:57:41.069Z,13.82
2023-11-01T18:00:11.094Z,13.68
2023-11-01T18:03:00.964Z,17.23
2023-11-01T18:05:42.424Z,15.35
2023-11-01T18:08:21.199Z,14.18
2023-11-01T18:11:01.656Z,16.80
2023-11-01T18:13:35.082Z,14.60
2023-11-01T18:16:06.594Z,13.90
2023-11-01T18:18:57.444Z,16.58
2023-11-01T18:24:05.610Z,14.25
2023-11-01T18:26:34.511Z,13.30
2023-11-01T18:29:07.409Z,11.45
2023-11-01T18:31:45.914Z,14.20
2023-11-01T18:34:23.727Z,16.52
2023-11-01T18:37:04.407Z,12.35
2023-11-01T18:39:32.831Z,10.77
2023-11-01T18:42:05.159Z,12.88
2023-11-01T18:50:42.995Z,13.68
2023-11-01T18:56:56.057Z,13.05
2023-11-01T19:00:08.162Z,14.00
2023-11-01T19:10:04.508Z,16.25
2023-11-01T19:13:05.809Z,16.42
2023-11-01T19:16:08.449Z,12.25
2023-11-01T19:19:06.006Z,15.00
2023-11-01T19:25:08.213Z,10.82
2023-11-01T19:28:07.334Z,10.23
2023-11-01T19:31:08.886Z,14.10
2023-11-01T19:33:37.821Z,11.60
2023-11-01T19:39:02.621Z,10.55
2023-11-01T19:46:05.310Z,9.77
2023-11-01T19:49:06.141Z,10.50
2023-11-01T19:52:05.992Z,9.95
2023-11-01T19:57:10.917Z,35.05
2023-11-01T20:00:04.129Z,12.70
2023-11-01T20:03:09.034Z,11.65
2023-11-01T20:06:11.132Z,9.25
2023-11-01T20:09:08.805Z,10.80
2023-11-01T20:12:10.335Z,6.65
2023-11-01T20:15:33.721Z,11.60
2023-11-01T20:18:05.411Z,10.10
2023-11-01T20:24:04.169Z,7.07
2023-11-01T20:33:08.449Z,9.27
2023-11-01T20:36:04.369Z,8.25
2023-11-01T20:45:04.505Z,8.20
2023-11-01T20:47:33.848Z,5.60
2023-11-01T20:50:08.463Z,8.52
2023-11-01T20:53:05.069Z,8.38
2023-11-01T21:01:33.357Z,7.00
2023-11-01T21:04:07.345Z,7.82
2023-11-01T21:09:34.608Z,7.22
2023-11-01T21:12:05.246Z,8.57
2023-11-01T21:17:37.181Z,9.02
2023-11-01T21:20:11.559Z,6.90
2023-11-01T21:23:05.702Z,5.70
2023-11-01T21:25:36.763Z,7.20
2023-11-01T21:28:05.213Z,6.85
2023-11-01T21:30:34.119Z,7.75
2023-11-01T21:37:36.820Z,6.15
2023-11-01T22:34:12.512Z,7.70
2023-11-01T22:55:40.359Z,7.85
2023-11-01T23:05:34.010Z,6.43
2023-11-01T23:08:10.542Z,10.02
2023-11-01T23:14:13.380Z,7.90
2023-11-01T23:17:09.294Z,8.13
2023-11-01T23:23:34.007Z,10.45
2023-11-01T23:26:34.303Z,9.70
2023-11-01T23:29:24.443Z,6.93
2023-11-01T23:33:08.168Z,8.13
2023-11-01T23:35:46.939Z,7.82
2023-11-01T23:38:29.942Z,5.80
2023-11-01T23:41:12.389Z,7.47
2023-11-01T23:44:12.088Z,7.78
2023-11-01T23:47:14.400Z,4.40
2023-11-01T23:50:12.097Z,4.57
2023-11-01T23:53:08.432Z,7.00
2023-11-01T23:56:10.498Z,5.50
